sensor_id;sensor_type;location;lat;lon;timestamp;temperature;humidity
8858;DHT22;4465;50.904;4.696;2022-12-29T00:00:12;11.50;99.90
8858;DHT22;4465;50.904;4.696;2022-12-29T00:02:41;11.50;99.90
8858;DHT22;4465;50.904;4.696;2022-12-29T00:05:10;11.50;99.90
8858;DHT22;4465;50.904;4.696;2022-12-29T00:07:36;11.50;99.90
8858;DHT22;4465;50.904;4.696;2022-12-29T00:10:05;11.50;99.90
8858;DHT22;4465;50.904;4.696;2022-12-29T00:12:31;11.50;99.90
8858;DHT22;4465;50.904;4.696;2022-12-29T00:15:19;11.60;99.90
8858;DHT22;4465;50.904;4.696;2022-12-29T00:18:04;11.60;99.90
8858;DHT22;4465;50.904;4.696;2022-12-29T00:20:37;11.50;99.90
8858;DHT22;4465;50.904;4.696;2022-12-29T00:23:22;11.60;99.90
8858;DHT22;4465;50.904;4.696;2022-12-29T00:26:15;11.50;99.90
8858;DHT22;4465;50.904;4.696;2022-12-29T00:29:00;11.50;99.90
8858;DHT22;4465;50.904;4.696;2022-12-29T00:32:02;11.60;99.90
8858;DHT22;4465;50.904;4.696;2022-12-29T00:34:48;11.50;99.90
8858;DHT22;4465;50.904;4.696;2022-12-29T00:37:33;11.60;99.90
8858;DHT22;4465;50.904;4.696;2022-12-29T00:40:18;11.60;99.90
8858;DHT22;4465;50.904;4.696;2022-12-29T00:43:03;11.50;99.90
8858;DHT22;4465;50.904;4.696;2022-12-29T00:45:48;11.50;99.90
8858;DHT22;4465;50.904;4.696;2022-12-29T00:48:14;11.50;99.90
8858;DHT22;4465;50.904;4.696;2022-12-29T00:50:39;11.50;99.90
8858;DHT22;4465;50.904;4.696;2022-12-29T00:53:05;11.50;99.90
8858;DHT22;4465;50.904;4.696;2022-12-29T00:55:31;11.60;99.90
8858;DHT22;4465;50.904;4.696;2022-12-29T00:58:05;11.60;99.90
8858;DHT22;4465;50.904;4.696;2022-12-29T01:00:31;11.60;99.90
8858;DHT22;4465;50.904;4.696;2022-12-29T01:02:57;11.70;99.90
8858;DHT22;4465;50.904;4.696;2022-12-29T01:05:23;11.70;99.90
8858;DHT22;4465;50.904;4.696;2022-12-29T01:07:51;11.70;99.90
8858;DHT22;4465;50.904;4.696;2022-12-29T01:10:17;11.70;99.90
8858;DHT22;4465;50.904;4.696;2022-12-29T01:12:43;11.70;99.90
8858;DHT22;4465;50.904;4.696;2022-12-29T01:15:13;11.70;99.90
8858;DHT22;4465;50.904;4.696;2022-12-29T01:17:41;11.70;99.90
8858;DHT22;4465;50.904;4.696;2022-12-29T01:20:09;11.70;99.90
8858;DHT22;4465;50.904;4.696;2022-12-29T01:22:37;11.70;99.90
8858;DHT22;4465;50.904;4.696;2022-12-29T01:25:04;11.70;99.90
8858;DHT22;4465;50.904;4.696;2022-12-29T01:27:30;11.80;99.90
8858;DHT22;4465;50.904;4.696;2022-12-29T01:29:56;11.70;99.90
8858;DHT22;4465;50.904;4.696;2022-12-29T01:32:22;11.70;99.90
8858;DHT22;4465;50.904;4.696;2022-12-29T01:34:49;11.70;99.90
8858;DHT22;4465;50.904;4.696;2022-12-29T01:37:15;11.70;99.90
8858;DHT22;4465;50.904;4.696;2022-12-29T01:39:48;11.70;99.90
8858;DHT22;4465;50.904;4.696;2022-12-29T01:42:23;11.60;99.90
8858;DHT22;4465;50.904;4.696;2022-12-29T01:45:10;11.60;99.90
8858;DHT22;4465;50.904;4.696;2022-12-29T01:52:56;11.50;99.90
8858;DHT22;4465;50.904;4.696;2022-12-29T01:55:42;11.50;99.90
8858;DHT22;4465;50.904;4.696;2022-12-29T01:58:12;11.50;99.90
8858;DHT22;4465;50.904;4.696;2022-12-29T02:00:42;11.40;99.90
8858;DHT22;4465;50.904;4.696;2022-12-29T02:03:08;11.40;99.90
8858;DHT22;4465;50.904;4.696;2022-12-29T02:05:56;11.40;99.90
8858;DHT22;4465;50.904;4.696;2022-12-29T02:08:26;11.40;99.90
8858;DHT22;4465;50.904;4.696;2022-12-29T02:10:57;11.30;99.90
8858;DHT22;4465;50.904;4.696;2022-12-29T02:13:26;11.30;99.90
8858;DHT22;4465;50.904;4.696;2022-12-29T02:25:31;11.00;99.90
8858;DHT22;4465;50.904;4.696;2022-12-29T02:31:16;10.70;99.90
8858;DHT22;4465;50.904;4.696;2022-12-29T02:36:40;10.50;99.90
8858;DHT22;4465;50.904;4.696;2022-12-29T02:39:23;10.40;99.90
8858;DHT22;4465;50.904;4.696;2022-12-29T02:42:23;10.40;99.90
8858;DHT22;4465;50.904;4.696;2022-12-29T02:50:06;10.30;99.90
8858;DHT22;4465;50.904;4.696;2022-12-29T02:52:38;10.20;99.90
8858;DHT22;4465;50.904;4.696;2022-12-29T02:55:07;10.20;99.90
8858;DHT22;4465;50.904;4.696;2022-12-29T02:57:37;10.20;99.90
8858;DHT22;4465;50.904;4.696;2022-12-29T03:00:21;10.20;99.90
8858;DHT22;4465;50.904;4.696;2022-12-29T03:09:10;10.20;99.90
8858;DHT22;4465;50.904;4.696;2022-12-29T03:11:41;10.20;99.90
8858;DHT22;4465;50.904;4.696;2022-12-29T03:14:33;10.10;99.90
8858;DHT22;4465;50.904;4.696;2022-12-29T03:17:29;10.00;99.90
8858;DHT22;4465;50.904;4.696;2022-12-29T03:20:04;9.90;99.90
8858;DHT22;4465;50.904;4.696;2022-12-29T03:22:36;9.90;99.90
8858;DHT22;4465;50.904;4.696;2022-12-29T03:25:16;9.80;99.90
8858;DHT22;4465;50.904;4.696;2022-12-29T03:27:48;9.70;99.90
8858;DHT22;4465;50.904;4.696;2022-12-29T03:30:15;9.70;99.90
8858;DHT22;4465;50.904;4.696;2022-12-29T03:32:47;9.60;99.90
8858;DHT22;4465;50.904;4.696;2022-12-29T03:35:17;9.60;99.90
8858;DHT22;4465;50.904;4.696;2022-12-29T03:37:51;9.60;99.90
8858;DHT22;4465;50.904;4.696;2022-12-29T03:40:23;9.50;99.90
8858;DHT22;4465;50.904;4.696;2022-12-29T03:42:50;9.50;99.90
8858;DHT22;4465;50.904;4.696;2022-12-29T03:45:16;9.50;99.90
8858;DHT22;4465;50.904;4.696;2022-12-29T03:47:45;9.50;99.90
8858;DHT22;4465;50.904;4.696;2022-12-29T03:50:12;9.50;99.90
8858;DHT22;4465;50.904;4.696;2022-12-29T03:52:39;9.50;99.90
8858;DHT22;4465;50.904;4.696;2022-12-29T03:55:05;9.50;99.90
8858;DHT22;4465;50.904;4.696;2022-12-29T03:57:31;9.50;99.90
8858;DHT22;4465;50.904;4.696;2022-12-29T03:59:57;9.50;99.90
8858;DHT22;4465;50.904;4.696;2022-12-29T04:02:28;9.50;99.90
8858;DHT22;4465;50.904;4.696;2022-12-29T04:04:54;9.50;99.90
8858;DHT22;4465;50.904;4.696;2022-12-29T04:07:21;9.50;99.90
8858;DHT22;4465;50.904;4.696;2022-12-29T04:09:50;9.60;99.90
8858;DHT22;4465;50.904;4.696;2022-12-29T04:12:16;9.60;99.90
8858;DHT22;4465;50.904;4.696;2022-12-29T04:14:43;9.60;99.90
8858;DHT22;4465;50.904;4.696;2022-12-29T04:17:09;9.60;99.90
8858;DHT22;4465;50.904;4.696;2022-12-29T04:19:37;9.60;99.90
8858;DHT22;4465;50.904;4.696;2022-12-29T04:22:03;9.60;99.90
8858;DHT22;4465;50.904;4.696;2022-12-29T04:24:29;9.50;99.90
8858;DHT22;4465;50.904;4.696;2022-12-29T04:26:56;9.50;99.90
8858;DHT22;4465;50.904;4.696;2022-12-29T04:29:21;9.50;99.90
8858;DHT22;4465;50.904;4.696;2022-12-29T04:31:48;9.40;99.90
8858;DHT22;4465;50.904;4.696;2022-12-29T04:34:14;9.40;99.90
8858;DHT22;4465;50.904;4.696;2022-12-29T04:36:42;9.30;99.90
8858;DHT22;4465;50.904;4.696;2022-12-29T04:39:08;9.30;99.90
8858;DHT22;4465;50.904;4.696;2022-12-29T04:41:37;9.30;99.90
8858;DHT22;4465;50.904;4.696;2022-12-29T04:44:03;9.20;99.90
8858;DHT22;4465;50.904;4.696;2022-12-29T04:46:29;9.30;99.90
8858;DHT22;4465;50.904;4.696;2022-12-29T04:48:55;9.20;99.90
8858;DHT22;4465;50.904;4.696;2022-12-29T04:51:21;9.30;99.90
8858;DHT22;4465;50.904;4.696;2022-12-29T04:53:48;9.30;99.90
8858;DHT22;4465;50.904;4.696;2022-12-29T04:56:13;9.40;99.90
8858;DHT22;4465;50.904;4.696;2022-12-29T04:58:40;9.40;99.90
8858;DHT22;4465;50.904;4.696;2022-12-29T05:01:06;9.40;99.90
8858;DHT22;4465;50.904;4.696;2022-12-29T05:03:32;9.40;99.90
8858;DHT22;4465;50.904;4.696;2022-12-29T05:05:58;9.50;99.90
8858;DHT22;4465;50.904;4.696;2022-12-29T05:08:25;9.50;99.90
8858;DHT22;4465;50.904;4.696;2022-12-29T05:10:51;9.50;99.90
8858;DHT22;4465;50.904;4.696;2022-12-29T05:13:17;9.60;99.90
8858;DHT22;4465;50.904;4.696;2022-12-29T05:15:53;9.60;99.90
8858;DHT22;4465;50.904;4.696;2022-12-29T05:18:19;9.70;99.90
8858;DHT22;4465;50.904;4.696;2022-12-29T05:20:46;9.70;99.90
8858;DHT22;4465;50.904;4.696;2022-12-29T05:23:12;9.70;99.90
8858;DHT22;4465;50.904;4.696;2022-12-29T05:25:42;9.70;99.90
8858;DHT22;4465;50.904;4.696;2022-12-29T05:28:08;9.70;99.90
8858;DHT22;4465;50.904;4.696;2022-12-29T05:30:34;9.70;99.90
8858;DHT22;4465;50.904;4.696;2022-12-29T05:33:00;9.70;99.90
8858;DHT22;4465;50.904;4.696;2022-12-29T05:35:26;9.70;99.90
8858;DHT22;4465;50.904;4.696;2022-12-29T05:37:52;9.70;99.90
8858;DHT22;4465;50.904;4.696;2022-12-29T05:40:18;9.70;99.90
8858;DHT22;4465;50.904;4.696;2022-12-29T05:42:44;9.70;99.90
8858;DHT22;4465;50.904;4.696;2022-12-29T05:45:10;9.70;99.90
8858;DHT22;4465;50.904;4.696;2022-12-29T05:47:36;9.70;99.90
8858;DHT22;4465;50.904;4.696;2022-12-29T05:50:04;9.70;99.90
8858;DHT22;4465;50.904;4.696;2022-12-29T05:52:30;9.70;99.90
8858;DHT22;4465;50.904;4.696;2022-12-29T05:54:56;9.70;99.90
8858;DHT22;4465;50.904;4.696;2022-12-29T05:57:22;9.70;99.90
8858;DHT22;4465;50.904;4.696;2022-12-29T05:59:48;9.70;99.90
8858;DHT22;4465;50.904;4.696;2022-12-29T06:02:14;9.80;99.90
8858;DHT22;4465;50.904;4.696;2022-12-29T06:04:43;9.80;99.90
8858;DHT22;4465;50.904;4.696;2022-12-29T06:07:08;9.80;99.90
8858;DHT22;4465;50.904;4.696;2022-12-29T06:09:36;9.80;99.90
8858;DHT22;4465;50.904;4.696;2022-12-29T06:12:03;9.80;99.90
8858;DHT22;4465;50.904;4.696;2022-12-29T06:14:28;9.80;99.90
8858;DHT22;4465;50.904;4.696;2022-12-29T06:16:54;9.80;99.90
8858;DHT22;4465;50.904;4.696;2022-12-29T06:19:20;9.70;99.90
8858;DHT22;4465;50.904;4.696;2022-12-29T06:21:47;9.70;99.90
8858;DHT22;4465;50.904;4.696;2022-12-29T06:24:12;9.70;99.90
8858;DHT22;4465;50.904;4.696;2022-12-29T06:26:38;9.70;99.90
8858;DHT22;4465;50.904;4.696;2022-12-29T06:29:07;9.70;99.90
8858;DHT22;4465;50.904;4.696;2022-12-29T06:31:36;9.70;99.90
8858;DHT22;4465;50.904;4.696;2022-12-29T06:34:02;9.70;99.90
8858;DHT22;4465;50.904;4.696;2022-12-29T06:36:28;9.80;99.90
8858;DHT22;4465;50.904;4.696;2022-12-29T06:38:54;9.80;99.90
8858;DHT22;4465;50.904;4.696;2022-12-29T06:41:20;9.80;99.90
8858;DHT22;4465;50.904;4.696;2022-12-29T06:43:46;9.70;99.90
8858;DHT22;4465;50.904;4.696;2022-12-29T06:46:15;9.70;99.90
8858;DHT22;4465;50.904;4.696;2022-12-29T06:48:41;9.70;99.90
8858;DHT22;4465;50.904;4.696;2022-12-29T06:51:08;9.70;99.90
8858;DHT22;4465;50.904;4.696;2022-12-29T06:53:36;9.70;99.90
8858;DHT22;4465;50.904;4.696;2022-12-29T06:56:03;9.70;99.90
8858;DHT22;4465;50.904;4.696;2022-12-29T06:58:29;9.70;99.90
8858;DHT22;4465;50.904;4.696;2022-12-29T07:00:55;9.70;99.90
8858;DHT22;4465;50.904;4.696;2022-12-29T07:03:21;9.80;99.90
8858;DHT22;4465;50.904;4.696;2022-12-29T07:05:47;9.80;99.90
8858;DHT22;4465;50.904;4.696;2022-12-29T07:08:13;9.80;99.90
8858;DHT22;4465;50.904;4.696;2022-12-29T07:10:41;9.80;99.90
8858;DHT22;4465;50.904;4.696;2022-12-29T07:13:10;9.80;99.90
8858;DHT22;4465;50.904;4.696;2022-12-29T07:15:37;9.90;99.90
8858;DHT22;4465;50.904;4.696;2022-12-29T07:18:03;9.90;99.90
8858;DHT22;4465;50.904;4.696;2022-12-29T07:20:30;9.80;99.90
8858;DHT22;4465;50.904;4.696;2022-12-29T07:22:56;9.90;99.90
8858;DHT22;4465;50.904;4.696;2022-12-29T07:25:22;9.90;99.90
8858;DHT22;4465;50.904;4.696;2022-12-29T07:27:49;9.90;99.90
8858;DHT22;4465;50.904;4.696;2022-12-29T07:30:18;9.90;99.90
8858;DHT22;4465;50.904;4.696;2022-12-29T07:32:44;10.00;99.90
8858;DHT22;4465;50.904;4.696;2022-12-29T07:35:14;9.90;99.90
8858;DHT22;4465;50.904;4.696;2022-12-29T07:37:48;9.90;99.90
8858;DHT22;4465;50.904;4.696;2022-12-29T07:40:14;9.90;99.90
8858;DHT22;4465;50.904;4.696;2022-12-29T07:42:40;9.90;99.90
8858;DHT22;4465;50.904;4.696;2022-12-29T07:45:07;9.90;99.90
8858;DHT22;4465;50.904;4.696;2022-12-29T07:47:34;9.90;99.90
8858;DHT22;4465;50.904;4.696;2022-12-29T07:50:01;9.90;99.90
8858;DHT22;4465;50.904;4.696;2022-12-29T07:52:29;10.00;99.90
8858;DHT22;4465;50.904;4.696;2022-12-29T07:54:55;9.90;99.90
8858;DHT22;4465;50.904;4.696;2022-12-29T07:57:23;10.00;99.90
8858;DHT22;4465;50.904;4.696;2022-12-29T07:59:49;10.00;99.90
8858;DHT22;4465;50.904;4.696;2022-12-29T08:02:15;10.00;99.90
8858;DHT22;4465;50.904;4.696;2022-12-29T08:04:42;10.00;99.90
8858;DHT22;4465;50.904;4.696;2022-12-29T08:07:08;10.10;99.90
8858;DHT22;4465;50.904;4.696;2022-12-29T08:09:34;10.10;99.90
8858;DHT22;4465;50.904;4.696;2022-12-29T08:12:00;10.10;99.90
8858;DHT22;4465;50.904;4.696;2022-12-29T08:14:29;10.10;99.90
8858;DHT22;4465;50.904;4.696;2022-12-29T08:16:57;10.10;99.90
8858;DHT22;4465;50.904;4.696;2022-12-29T08:19:23;10.00;99.90
8858;DHT22;4465;50.904;4.696;2022-12-29T08:21:49;10.00;99.90
8858;DHT22;4465;50.904;4.696;2022-12-29T08:24:15;10.00;99.90
8858;DHT22;4465;50.904;4.696;2022-12-29T08:26:42;10.00;99.90
8858;DHT22;4465;50.904;4.696;2022-12-29T08:29:08;10.00;99.90
8858;DHT22;4465;50.904;4.696;2022-12-29T08:31:35;10.00;99.90
8858;DHT22;4465;50.904;4.696;2022-12-29T08:34:01;10.10;99.90
8858;DHT22;4465;50.904;4.696;2022-12-29T08:36:29;10.00;99.90
8858;DHT22;4465;50.904;4.696;2022-12-29T08:38:56;10.00;99.90
8858;DHT22;4465;50.904;4.696;2022-12-29T08:41:22;10.10;99.90
8858;DHT22;4465;50.904;4.696;2022-12-29T08:43:49;10.10;99.90
8858;DHT22;4465;50.904;4.696;2022-12-29T08:46:16;10.10;99.90
8858;DHT22;4465;50.904;4.696;2022-12-29T08:48:42;10.20;99.90
8858;DHT22;4465;50.904;4.696;2022-12-29T08:51:09;10.10;99.90
8858;DHT22;4465;50.904;4.696;2022-12-29T08:53:35;10.20;99.90
8858;DHT22;4465;50.904;4.696;2022-12-29T08:56:01;10.20;99.90
8858;DHT22;4465;50.904;4.696;2022-12-29T08:58:29;10.20;99.90
8858;DHT22;4465;50.904;4.696;2022-12-29T09:00:57;10.10;99.90
8858;DHT22;4465;50.904;4.696;2022-12-29T09:03:24;10.20;99.90
8858;DHT22;4465;50.904;4.696;2022-12-29T09:05:51;10.20;99.90
8858;DHT22;4465;50.904;4.696;2022-12-29T09:08:18;10.20;99.90
8858;DHT22;4465;50.904;4.696;2022-12-29T09:10:44;10.20;99.90
8858;DHT22;4465;50.904;4.696;2022-12-29T09:13:12;10.20;99.90
8858;DHT22;4465;50.904;4.696;2022-12-29T09:15:38;10.20;99.90
8858;DHT22;4465;50.904;4.696;2022-12-29T09:18:05;10.30;99.90
8858;DHT22;4465;50.904;4.696;2022-12-29T09:20:31;10.30;99.90
8858;DHT22;4465;50.904;4.696;2022-12-29T09:22:57;10.30;99.90
8858;DHT22;4465;50.904;4.696;2022-12-29T09:25:24;10.30;99.90
8858;DHT22;4465;50.904;4.696;2022-12-29T09:27:51;10.30;99.90
8858;DHT22;4465;50.904;4.696;2022-12-29T09:30:19;10.30;99.90
8858;DHT22;4465;50.904;4.696;2022-12-29T09:32:48;10.30;99.90
8858;DHT22;4465;50.904;4.696;2022-12-29T09:35:15;10.40;99.90
8858;DHT22;4465;50.904;4.696;2022-12-29T09:37:42;10.40;99.90
8858;DHT22;4465;50.904;4.696;2022-12-29T09:40:24;10.40;99.90
8858;DHT22;4465;50.904;4.696;2022-12-29T09:48:35;10.50;99.90
8858;DHT22;4465;50.904;4.696;2022-12-29T09:51:08;10.60;99.90
8858;DHT22;4465;50.904;4.696;2022-12-29T09:53:39;10.60;99.90
8858;DHT22;4465;50.904;4.696;2022-12-29T09:56:15;10.60;99.90
8858;DHT22;4465;50.904;4.696;2022-12-29T09:58:52;10.70;99.90
8858;DHT22;4465;50.904;4.696;2022-12-29T10:01:41;10.70;99.90
8858;DHT22;4465;50.904;4.696;2022-12-29T10:04:10;10.70;99.90
8858;DHT22;4465;50.904;4.696;2022-12-29T10:09:37;10.80;99.90
8858;DHT22;4465;50.904;4.696;2022-12-29T10:21:00;10.90;99.90
8858;DHT22;4465;50.904;4.696;2022-12-29T10:23:42;10.80;99.90
8858;DHT22;4465;50.904;4.696;2022-12-29T10:26:24;10.80;99.90
8858;DHT22;4465;50.904;4.696;2022-12-29T10:29:24;10.80;99.90
8858;DHT22;4465;50.904;4.696;2022-12-29T10:31:58;10.80;99.90
8858;DHT22;4465;50.904;4.696;2022-12-29T10:34:37;10.80;99.90
8858;DHT22;4465;50.904;4.696;2022-12-29T10:38:12;10.80;99.90
8858;DHT22;4465;50.904;4.696;2022-12-29T10:40:23;10.80;99.90
8858;DHT22;4465;50.904;4.696;2022-12-29T10:42:53;10.80;99.90
8858;DHT22;4465;50.904;4.696;2022-12-29T10:45:21;10.80;99.90
8858;DHT22;4465;50.904;4.696;2022-12-29T10:50:20;10.80;99.90
8858;DHT22;4465;50.904;4.696;2022-12-29T10:52:46;10.80;99.90
8858;DHT22;4465;50.904;4.696;2022-12-29T10:55:15;10.70;99.90
8858;DHT22;4465;50.904;4.696;2022-12-29T10:57:44;10.70;99.90
8858;DHT22;4465;50.904;4.696;2022-12-29T11:00:15;10.70;99.90
8858;DHT22;4465;50.904;4.696;2022-12-29T11:05:26;10.70;99.90
8858;DHT22;4465;50.904;4.696;2022-12-29T11:08:03;10.70;99.90
8858;DHT22;4465;50.904;4.696;2022-12-29T11:10:36;10.70;99.90
8858;DHT22;4465;50.904;4.696;2022-12-29T11:13:10;10.80;99.90
8858;DHT22;4465;50.904;4.696;2022-12-29T11:15:58;10.70;99.90
8858;DHT22;4465;50.904;4.696;2022-12-29T11:18:35;10.80;99.90
8858;DHT22;4465;50.904;4.696;2022-12-29T11:21:23;10.80;99.90
8858;DHT22;4465;50.904;4.696;2022-12-29T11:24:05;10.80;99.90
8858;DHT22;4465;50.904;4.696;2022-12-29T11:26:32;10.80;99.90
8858;DHT22;4465;50.904;4.696;2022-12-29T11:29:17;10.80;99.90
8858;DHT22;4465;50.904;4.696;2022-12-29T11:31:51;10.90;99.90
8858;DHT22;4465;50.904;4.696;2022-12-29T11:34:52;10.90;99.90
8858;DHT22;4465;50.904;4.696;2022-12-29T11:37:18;10.90;99.90
8858;DHT22;4465;50.904;4.696;2022-12-29T11:39:56;11.00;99.90
8858;DHT22;4465;50.904;4.696;2022-12-29T11:42:51;11.00;99.90
8858;DHT22;4465;50.904;4.696;2022-12-29T11:47:49;11.10;99.90
8858;DHT22;4465;50.904;4.696;2022-12-29T11:50:21;11.20;99.90
8858;DHT22;4465;50.904;4.696;2022-12-29T11:53:02;11.20;99.90
8858;DHT22;4465;50.904;4.696;2022-12-29T11:55:30;11.10;99.90
8858;DHT22;4465;50.904;4.696;2022-12-29T11:58:02;11.10;99.90
8858;DHT22;4465;50.904;4.696;2022-12-29T12:00:33;11.00;99.90
8858;DHT22;4465;50.904;4.696;2022-12-29T12:08:07;10.80;99.90
8858;DHT22;4465;50.904;4.696;2022-12-29T12:10:42;10.80;99.90
8858;DHT22;4465;50.904;4.696;2022-12-29T12:15:59;10.70;99.90
8858;DHT22;4465;50.904;4.696;2022-12-29T12:18:30;10.70;99.90
8858;DHT22;4465;50.904;4.696;2022-12-29T12:21:05;10.70;99.90
8858;DHT22;4465;50.904;4.696;2022-12-29T12:26:20;10.60;99.90
8858;DHT22;4465;50.904;4.696;2022-12-29T12:28:59;10.60;99.90
8858;DHT22;4465;50.904;4.696;2022-12-29T12:34:40;10.60;99.90
8858;DHT22;4465;50.904;4.696;2022-12-29T12:40:24;10.50;99.90
8858;DHT22;4465;50.904;4.696;2022-12-29T12:51:03;10.50;99.90
8858;DHT22;4465;50.904;4.696;2022-12-29T12:56:47;10.40;99.90
8858;DHT22;4465;50.904;4.696;2022-12-29T13:11:16;10.50;99.90
8858;DHT22;4465;50.904;4.696;2022-12-29T13:16:53;10.60;99.90
8858;DHT22;4465;50.904;4.696;2022-12-29T13:19:47;10.60;99.90
8858;DHT22;4465;50.904;4.696;2022-12-29T13:22:43;10.60;99.90
8858;DHT22;4465;50.904;4.696;2022-12-29T13:36:37;10.60;99.90
8858;DHT22;4465;50.904;4.696;2022-12-29T13:39:32;10.70;99.90
8858;DHT22;4465;50.904;4.696;2022-12-29T13:41:59;10.70;99.90
8858;DHT22;4465;50.904;4.696;2022-12-29T13:44:48;10.60;99.90
8858;DHT22;4465;50.904;4.696;2022-12-29T13:47:36;10.60;99.90
8858;DHT22;4465;50.904;4.696;2022-12-29T13:50:08;10.60;99.90
8858;DHT22;4465;50.904;4.696;2022-12-29T13:53:05;10.60;99.90
8858;DHT22;4465;50.904;4.696;2022-12-29T13:55:55;10.60;99.90
8858;DHT22;4465;50.904;4.696;2022-12-29T14:01:35;10.50;99.90
8858;DHT22;4465;50.904;4.696;2022-12-29T14:04:24;10.50;99.90
8858;DHT22;4465;50.904;4.696;2022-12-29T14:07:06;10.50;99.90
8858;DHT22;4465;50.904;4.696;2022-12-29T14:09:48;10.60;99.90
8858;DHT22;4465;50.904;4.696;2022-12-29T14:12:42;10.60;99.90
8858;DHT22;4465;50.904;4.696;2022-12-29T14:17:40;10.70;99.90
8858;DHT22;4465;50.904;4.696;2022-12-29T14:20:21;10.70;99.90
8858;DHT22;4465;50.904;4.696;2022-12-29T14:23:16;10.70;99.90
8858;DHT22;4465;50.904;4.696;2022-12-29T14:28:32;10.60;99.90
8858;DHT22;4465;50.904;4.696;2022-12-29T14:31:48;10.50;99.90
8858;DHT22;4465;50.904;4.696;2022-12-29T14:36:42;10.40;99.90
8858;DHT22;4465;50.904;4.696;2022-12-29T14:42:12;10.30;99.90
8858;DHT22;4465;50.904;4.696;2022-12-29T14:44:48;10.30;99.90
8858;DHT22;4465;50.904;4.696;2022-12-29T14:49:55;10.20;99.90
8858;DHT22;4465;50.904;4.696;2022-12-29T14:52:27;10.20;99.90
8858;DHT22;4465;50.904;4.696;2022-12-29T14:54:59;10.20;99.90
8858;DHT22;4465;50.904;4.696;2022-12-29T14:57:51;10.20;99.90
8858;DHT22;4465;50.904;4.696;2022-12-29T15:00:21;10.20;99.90
8858;DHT22;4465;50.904;4.696;2022-12-29T15:02:53;10.20;99.90
8858;DHT22;4465;50.904;4.696;2022-12-29T15:05:34;10.20;99.90
8858;DHT22;4465;50.904;4.696;2022-12-29T15:08:00;10.10;99.90
8858;DHT22;4465;50.904;4.696;2022-12-29T15:10:42;10.10;99.90
8858;DHT22;4465;50.904;4.696;2022-12-29T15:13:22;10.00;99.90
8858;DHT22;4465;50.904;4.696;2022-12-29T15:15:51;9.80;99.90
8858;DHT22;4465;50.904;4.696;2022-12-29T15:18:29;9.70;99.90
8858;DHT22;4465;50.904;4.696;2022-12-29T15:21:05;9.70;99.90
8858;DHT22;4465;50.904;4.696;2022-12-29T15:23:34;9.50;99.90
8858;DHT22;4465;50.904;4.696;2022-12-29T15:26:03;9.50;99.90
8858;DHT22;4465;50.904;4.696;2022-12-29T15:28:46;9.40;99.90
8858;DHT22;4465;50.904;4.696;2022-12-29T15:31:22;9.30;99.90
8858;DHT22;4465;50.904;4.696;2022-12-29T15:33:55;9.30;99.90
8858;DHT22;4465;50.904;4.696;2022-12-29T15:36:37;9.20;99.90
8858;DHT22;4465;50.904;4.696;2022-12-29T15:39:25;9.10;99.90
8858;DHT22;4465;50.904;4.696;2022-12-29T15:42:02;9.10;99.90
8858;DHT22;4465;50.904;4.696;2022-12-29T15:47:26;8.90;99.90
8858;DHT22;4465;50.904;4.696;2022-12-29T15:50:09;8.80;99.90
8858;DHT22;4465;50.904;4.696;2022-12-29T15:52:39;8.70;99.90
8858;DHT22;4465;50.904;4.696;2022-12-29T15:55:09;8.60;99.90
8858;DHT22;4465;50.904;4.696;2022-12-29T15:57:43;8.50;99.90
8858;DHT22;4465;50.904;4.696;2022-12-29T16:00:25;8.50;99.90
8858;DHT22;4465;50.904;4.696;2022-12-29T16:02:52;8.50;99.90
8858;DHT22;4465;50.904;4.696;2022-12-29T16:05:20;8.40;99.90
8858;DHT22;4465;50.904;4.696;2022-12-29T16:07:56;8.40;99.90
8858;DHT22;4465;50.904;4.696;2022-12-29T16:16:39;8.20;99.90
8858;DHT22;4465;50.904;4.696;2022-12-29T16:19:27;8.20;99.90
8858;DHT22;4465;50.904;4.696;2022-12-29T16:21:58;8.20;99.90
8858;DHT22;4465;50.904;4.696;2022-12-29T16:24:27;8.10;99.90
8858;DHT22;4465;50.904;4.696;2022-12-29T16:27:06;8.10;99.90
8858;DHT22;4465;50.904;4.696;2022-12-29T16:29:34;8.10;99.90
8858;DHT22;4465;50.904;4.696;2022-12-29T16:32:00;8.10;99.90
8858;DHT22;4465;50.904;4.696;2022-12-29T16:34:42;8.10;99.90
8858;DHT22;4465;50.904;4.696;2022-12-29T16:37:29;8.10;99.90
8858;DHT22;4465;50.904;4.696;2022-12-29T16:39:56;8.00;99.90
8858;DHT22;4465;50.904;4.696;2022-12-29T16:42:46;8.00;99.90
8858;DHT22;4465;50.904;4.696;2022-12-29T16:47:46;8.00;99.90
8858;DHT22;4465;50.904;4.696;2022-12-29T16:50:17;8.00;99.90
8858;DHT22;4465;50.904;4.696;2022-12-29T16:52:50;8.00;99.90
8858;DHT22;4465;50.904;4.696;2022-12-29T16:55:18;7.90;99.90
8858;DHT22;4465;50.904;4.696;2022-12-29T16:57:48;7.90;99.90
8858;DHT22;4465;50.904;4.696;2022-12-29T17:00:23;8.00;99.90
8858;DHT22;4465;50.904;4.696;2022-12-29T17:02:52;7.90;99.90
8858;DHT22;4465;50.904;4.696;2022-12-29T17:05:18;7.90;99.90
8858;DHT22;4465;50.904;4.696;2022-12-29T17:07:45;7.90;99.90
8858;DHT22;4465;50.904;4.696;2022-12-29T17:10:12;7.90;99.90
8858;DHT22;4465;50.904;4.696;2022-12-29T17:12:43;7.90;99.90
8858;DHT22;4465;50.904;4.696;2022-12-29T17:15:21;7.90;99.90
8858;DHT22;4465;50.904;4.696;2022-12-29T17:17:52;7.90;99.90
8858;DHT22;4465;50.904;4.696;2022-12-29T17:20:29;7.90;99.90
8858;DHT22;4465;50.904;4.696;2022-12-29T17:22:57;7.90;99.90
8858;DHT22;4465;50.904;4.696;2022-12-29T17:25:35;7.90;99.90
8858;DHT22;4465;50.904;4.696;2022-12-29T17:30:44;7.90;99.90
8858;DHT22;4465;50.904;4.696;2022-12-29T17:33:15;7.90;99.90
8858;DHT22;4465;50.904;4.696;2022-12-29T17:35:42;7.90;99.90
8858;DHT22;4465;50.904;4.696;2022-12-29T17:38:30;7.90;99.90
8858;DHT22;4465;50.904;4.696;2022-12-29T17:40:57;7.90;99.90
8858;DHT22;4465;50.904;4.696;2022-12-29T17:43:24;7.90;99.90
8858;DHT22;4465;50.904;4.696;2022-12-29T17:45:53;7.90;99.90
8858;DHT22;4465;50.904;4.696;2022-12-29T17:48:20;7.90;99.90
8858;DHT22;4465;50.904;4.696;2022-12-29T17:50:48;7.90;99.90
8858;DHT22;4465;50.904;4.696;2022-12-29T17:53:22;7.90;99.90
8858;DHT22;4465;50.904;4.696;2022-12-29T17:55:52;7.90;99.90
8858;DHT22;4465;50.904;4.696;2022-12-29T17:58:25;8.00;99.90
8858;DHT22;4465;50.904;4.696;2022-12-29T18:00:55;8.00;99.90
8858;DHT22;4465;50.904;4.696;2022-12-29T18:03:27;8.00;99.90
8858;DHT22;4465;50.904;4.696;2022-12-29T18:05:53;8.00;99.90
8858;DHT22;4465;50.904;4.696;2022-12-29T18:08:19;8.00;99.90
8858;DHT22;4465;50.904;4.696;2022-12-29T18:10:46;8.00;99.90
8858;DHT22;4465;50.904;4.696;2022-12-29T18:13:27;8.00;99.90
8858;DHT22;4465;50.904;4.696;2022-12-29T18:15:54;8.00;99.90
8858;DHT22;4465;50.904;4.696;2022-12-29T18:18:25;8.00;99.90
8858;DHT22;4465;50.904;4.696;2022-12-29T18:20:55;8.00;99.90
8858;DHT22;4465;50.904;4.696;2022-12-29T18:23:31;8.00;99.90
8858;DHT22;4465;50.904;4.696;2022-12-29T18:28:43;8.00;99.90
8858;DHT22;4465;50.904;4.696;2022-12-29T18:31:16;8.00;99.90
8858;DHT22;4465;50.904;4.696;2022-12-29T18:33:43;8.00;99.90
8858;DHT22;4465;50.904;4.696;2022-12-29T18:36:10;8.00;99.90
8858;DHT22;4465;50.904;4.696;2022-12-29T18:38:37;8.00;99.90
8858;DHT22;4465;50.904;4.696;2022-12-29T18:41:03;8.00;99.90
8858;DHT22;4465;50.904;4.696;2022-12-29T18:43:32;8.00;99.90
8858;DHT22;4465;50.904;4.696;2022-12-29T18:45:59;8.00;99.90
8858;DHT22;4465;50.904;4.696;2022-12-29T18:48:25;8.00;99.90
8858;DHT22;4465;50.904;4.696;2022-12-29T18:50:52;7.90;99.90
8858;DHT22;4465;50.904;4.696;2022-12-29T18:53:21;7.90;99.90
8858;DHT22;4465;50.904;4.696;2022-12-29T18:55:47;7.90;99.90
8858;DHT22;4465;50.904;4.696;2022-12-29T18:58:14;7.90;99.90
8858;DHT22;4465;50.904;4.696;2022-12-29T19:00:41;7.90;99.90
8858;DHT22;4465;50.904;4.696;2022-12-29T19:03:15;7.90;99.90